Time;durP1;ratioP1;P1;durP2;ratioP2;P2;SDS_P1;SDS_P2;PMS_P1;PMS_P2;Temp;Humidity;BMP_temperature;BMP_pressure;BME280_temperature;BME280_humidity;BME280_pressure;Samples;Min_cycle;Max_cycle;Signal;HPM_P1;HPM_P2
2022/05/04 00:00:10;;;;;;;6.30;4.10;;;;;;;13.76;70.36;99945.91;4427325;32;33013;-86
2022/05/04 00:02:39;;;;;;;5.90;4.05;;;;;;;13.29;72.90;99947.66;4426683;32;34155;-86
2022/05/04 00:05:08;;;;;;;7.05;4.90;;;;;;;12.45;76.34;99954.06;4441107;32;34760;-86
2022/05/04 00:07:37;;;;;;;9.77;5.18;;;;;;;11.58;81.00;99961.69;4416742;32;31424;-84
2022/05/04 00:10:07;;;;;;;7.10;5.07;;;;;;;12.04;80.26;99949.81;4441115;32;33079;-83
2022/05/04 00:12:35;;;;;;;6.93;4.35;;;;;;;13.35;73.84;99947.94;4440142;32;34259;-85
2022/05/04 00:15:04;;;;;;;6.80;4.43;;;;;;;14.03;69.94;99945.94;4443343;32;33920;-85
2022/05/04 00:17:31;;;;;;;6.12;4.60;;;;;;;13.63;70.51;99944.56;4443524;32;34615;-86
2022/05/04 00:19:59;;;;;;;7.68;4.95;;;;;;;12.82;74.06;99952.00;4440205;32;34024;-85
2022/05/04 00:22:28;;;;;;;8.05;4.87;;;;;;;12.24;76.79;99967.06;4437745;32;33715;-86
2022/05/04 00:24:56;;;;;;;8.43;5.00;;;;;;;11.66;79.47;99962.87;4427847;32;33720;-85
2022/05/04 00:27:24;;;;;;;7.75;5.37;;;;;;;11.74;79.95;99960.63;4425881;32;34551;-86
2022/05/04 00:29:51;;;;;;;7.32;4.87;;;;;;;12.53;76.95;99962.16;4428100;32;33494;-86
2022/05/04 00:32:19;;;;;;;7.18;4.85;;;;;;;13.51;71.41;99951.97;4439993;32;33885;-85
2022/05/04 00:34:47;;;;;;;8.35;5.03;;;;;;;13.13;71.73;99951.44;4438252;32;33552;-85
2022/05/04 00:37:15;;;;;;;6.80;5.07;;;;;;;11.57;79.15;99963.41;4427690;32;33423;-85
2022/05/04 00:39:42;;;;;;;8.50;5.40;;;;;;;12.08;77.74;99962.97;4440875;32;33304;-85
2022/05/04 00:42:13;;;;;;;7.75;4.97;;;;;;;12.53;74.23;99962.16;4415971;32;34040;-86
2022/05/04 00:44:42;;;;;;;10.35;6.07;;;;;;;11.44;79.39;99966.28;4445093;32;33208;-84
2022/05/04 00:47:09;;;;;;;8.50;5.55;;;;;;;10.72;83.37;99961.31;4429986;32;33465;-84
2022/05/04 00:49:39;;;;;;;10.13;6.15;;;;;;;11.02;82.73;99963.53;4441246;32;34302;-86
2022/05/04 00:52:07;;;;;;;9.40;5.68;;;;;;;10.75;83.79;99968.34;4426081;32;32391;-86
2022/05/04 00:54:36;;;;;;;9.68;6.30;;;;;;;10.73;83.90;99970.84;4444331;32;33642;-84
2022/05/04 00:57:05;;;;;;;8.02;5.80;;;;;;;10.59;84.98;99974.50;4423619;32;33833;-84
2022/05/04 00:59:32;;;;;;;9.02;5.60;;;;;;;10.70;84.62;99970.72;4425404;32;33290;-86
2022/05/04 01:02:00;;;;;;;6.90;5.07;;;;;;;11.42;81.26;99973.09;4432263;32;33275;-85
2022/05/04 01:04:28;;;;;;;7.00;4.40;;;;;;;12.47;76.08;99972.31;4427171;32;33048;-85
2022/05/04 01:06:55;;;;;;;7.15;5.05;;;;;;;12.99;72.75;99958.72;4423571;32;33601;-85
2022/05/04 01:09:22;;;;;;;9.40;5.55;;;;;;;12.66;72.50;99967.00;4429309;32;33324;-85
2022/05/04 01:11:50;;;;;;;7.43;4.80;;;;;;;11.97;76.06;99969.41;4442694;32;33386;-85
2022/05/04 01:14:17;;;;;;;8.05;5.00;;;;;;;12.29;74.97;99962.94;4439236;32;33937;-85
2022/05/04 01:16:48;;;;;;;7.60;5.10;;;;;;;12.52;73.35;99965.59;4437887;32;33875;-85
2022/05/04 01:19:16;;;;;;;8.20;5.37;;;;;;;11.73;76.73;99959.75;4414450;32;32349;-85
2022/05/04 01:21:47;;;;;;;8.07;5.20;;;;;;;11.52;77.63;99959.69;4437553;32;34524;-86
2022/05/04 01:24:15;;;;;;;8.80;5.80;;;;;;;11.21;79.79;99958.34;4439555;32;33870;-84
2022/05/04 01:26:42;;;;;;;8.23;5.30;;;;;;;11.60;77.48;99963.50;4439201;32;33831;-85
2022/05/04 01:29:10;;;;;;;7.57;5.05;;;;;;;11.65;77.98;99965.41;4440069;32;33805;-85
2022/05/04 01:31:37;;;;;;;8.77;5.70;;;;;;;12.41;72.84;99962.56;4438778;32;34222;-84
2022/05/04 01:34:06;;;;;;;8.25;5.60;;;;;;;11.26;78.73;99965.44;4439110;32;32505;-84
2022/05/04 01:36:34;;;;;;;8.82;5.37;;;;;;;11.74;75.74;99960.63;4439147;32;33766;-85
2022/05/04 01:39:01;;;;;;;7.93;5.40;;;;;;;10.62;81.34;99969.44;4424394;32;32063;-84
2022/05/04 01:44:15;;;;;;;10.20;5.95;;;;;;;9.74;85.85;99961.69;4442880;32;32088;-85
2022/05/04 01:46:43;;;;;;;8.93;6.30;;;;;;;9.63;86.93;99963.72;4438266;32;33552;-83
2022/05/04 01:49:10;;;;;;;9.90;6.20;;;;;;;9.71;86.63;99971.88;4441340;32;34291;-83
2022/05/04 01:51:38;;;;;;;9.07;6.10;;;;;;;9.72;86.59;99963.31;4425302;32;33368;-84
2022/05/04 01:54:07;;;;;;;10.95;6.25;;;;;;;9.84;85.57;99969.09;4438046;32;33761;-83
2022/05/04 01:56:34;;;;;;;9.50;6.20;;;;;;;9.75;85.82;99973.81;4437245;32;33457;-85
2022/05/04 01:59:02;;;;;;;11.57;5.95;;;;;;;9.87;85.27;99964.09;4436434;32;32759;-83
2022/05/04 02:01:29;;;;;;;11.65;6.50;;;;;;;10.01;84.49;99962.19;4425145;32;33774;-85
2022/05/04 02:03:58;;;;;;;10.10;6.80;;;;;;;9.69;85.52;99958.84;4439737;32;33878;-84
2022/05/04 02:06:27;;;;;;;9.70;6.07;;;;;;;9.70;86.00;99964.94;4423483;32;32327;-83
2022/05/04 02:08:57;;;;;;;9.88;6.93;;;;;;;9.70;85.27;99955.47;4445866;32;32996;-85
2022/05/04 02:11:25;;;;;;;9.90;6.50;;;;;;;9.84;84.64;99958.75;4426839;32;34581;-85
2022/05/04 02:13:52;;;;;;;9.60;6.30;;;;;;;10.59;81.37;99958.97;4426210;32;32730;-84
2022/05/04 02:16:20;;;;;;;11.02;5.93;;;;;;;10.17;82.68;99961.22;4427401;32;33720;-85
2022/05/04 02:18:48;;;;;;;9.98;6.72;;;;;;;10.01;82.77;99952.72;4439777;32;33367;-84
2022/05/04 02:21:16;;;;;;;9.27;6.12;;;;;;;10.64;80.31;99957.44;4437395;32;34620;-84
2022/05/04 02:23:44;;;;;;;9.68;6.03;;;;;;;11.26;77.49;99955.06;4423939;32;33819;-83
2022/05/04 02:26:11;;;;;;;10.95;8.48;;;;;;;11.15;77.07;99955.50;4424464;32;32926;-83
2022/05/04 02:28:39;;;;;;;9.10;6.60;;;;;;;10.90;77.56;99956.09;4441282;32;34425;-85
2022/05/04 02:31:06;;;;;;;10.00;6.07;;;;;;;10.70;78.81;99965.53;4442753;32;33580;-84
2022/05/04 02:33:34;;;;;;;9.85;6.07;;;;;;;11.57;75.19;99960.81;4440717;32;34033;-86
2022/05/04 02:38:48;;;;;;;9.23;5.12;;;;;;;12.40;70.11;99958.19;4428448;32;34189;-85
2022/05/04 02:41:16;;;;;;;10.15;5.07;;;;;;;11.89;71.11;99961.31;4415978;32;34075;-83
2022/05/04 02:43:43;;;;;;;7.55;5.10;;;;;;;10.26;79.40;99969.44;4428534;32;33755;-83
2022/05/04 02:46:19;;;;;;;10.20;5.50;;;;;;;10.23;80.31;99974.47;4449984;32;34619;-84
2022/05/04 02:48:47;;;;;;;9.57;6.30;;;;;;;10.65;78.78;99969.59;4442720;32;32951;-84
2022/05/04 02:51:16;;;;;;;9.23;5.47;;;;;;;10.02;81.13;99970.03;4422763;32;33407;-83
2022/05/04 02:53:44;;;;;;;10.00;6.10;;;;;;;9.47;84.05;99972.41;4434474;32;35784;-84
2022/05/04 02:56:13;;;;;;;10.65;6.47;;;;;;;9.31;85.73;99982.72;4437769;32;33348;-85
2022/05/04 02:58:42;;;;;;;9.70;5.85;;;;;;;9.28;85.97;99977.41;4438407;32;32771;-83
2022/05/04 03:04:09;;;;;;;10.27;6.62;;;;;;;9.25;86.84;99976.44;4429243;32;33477;-84
2022/05/04 03:06:40;;;;;;;10.27;6.15;;;;;;;9.31;86.57;99974.97;4432263;32;34651;-85
2022/05/04 03:09:10;;;;;;;9.77;6.60;;;;;;;9.13;87.53;99970.63;4448314;32;33031;-85
2022/05/04 03:11:56;;;;;;;11.27;6.70;;;;;;;9.13;87.62;99975.78;4428675;32;34231;-85
2022/05/04 03:14:26;;;;;;;11.25;7.18;;;;;;;9.18;87.56;99969.19;4430632;32;33885;-83
2022/05/04 03:16:54;;;;;;;12.13;6.68;;;;;;;9.31;86.61;99972.38;4422933;32;33368;-83
2022/05/04 03:19:22;;;;;;;11.32;6.95;;;;;;;9.50;85.70;99972.53;4405944;32;32877;-83
2022/05/04 03:21:51;;;;;;;10.32;6.68;;;;;;;9.40;86.06;99980.63;4431827;32;32627;-83
2022/05/04 03:24:19;;;;;;;9.52;6.60;;;;;;;9.24;86.54;99972.06;4430647;32;34426;-84
2022/05/04 03:26:46;;;;;;;11.10;7.10;;;;;;;9.27;86.18;99983.38;4430579;32;33238;-85
2022/05/04 03:29:14;;;;;;;10.98;6.80;;;;;;;9.07;86.56;99975.47;4442403;32;31714;-85
2022/05/04 03:31:41;;;;;;;11.52;6.85;;;;;;;9.01;87.69;99977.72;4447664;32;33459;-83
2022/05/04 03:34:09;;;;;;;13.00;7.65;;;;;;;8.93;87.59;99991.94;4451482;32;34697;-84
2022/05/04 03:36:37;;;;;;;11.95;6.68;;;;;;;8.88;88.16;99995.94;4442658;32;34409;-85
2022/05/04 03:39:05;;;;;;;10.68;6.97;;;;;;;8.85;88.34;99997.56;4429101;32;33685;-84
2022/05/04 03:41:33;;;;;;;13.55;7.50;;;;;;;8.85;89.22;100000.16;4433442;32;33038;-84
2022/05/04 03:44:01;;;;;;;12.95;7.62;;;;;;;8.81;88.77;99995.63;4432630;32;33955;-85
2022/05/04 03:46:41;;;;;;;12.40;7.50;;;;;;;8.87;88.65;99999.34;4426815;32;33656;-84
2022/05/04 03:49:08;;;;;;;12.60;7.15;;;;;;;9.04;87.89;100001.16;4426724;32;32897;-83
2022/05/04 03:51:36;;;;;;;12.02;6.75;;;;;;;9.28;86.64;99990.34;4428948;32;34713;-85
2022/05/04 03:54:04;;;;;;;12.27;6.55;;;;;;;9.14;86.71;99998.25;4436681;32;34653;-83
2022/05/04 03:56:33;;;;;;;12.37;7.80;;;;;;;8.90;88.10;100002.09;4432565;32;33615;-84
2022/05/04 03:59:02;;;;;;;10.32;7.45;;;;;;;8.82;88.52;100001.66;4449966;32;33544;-83
2022/05/04 04:01:29;;;;;;;15.82;8.40;;;;;;;8.75;89.25;100003.03;4447034;32;34616;-84
2022/05/04 04:03:58;;;;;;;13.68;8.25;;;;;;;8.83;88.94;100000.88;4420272;32;33902;-86
2022/05/04 04:06:26;;;;;;;10.95;7.47;;;;;;;9.46;86.62;100001.62;4432362;32;35521;-84
2022/05/04 04:08:54;;;;;;;10.73;7.68;;;;;;;9.71;85.13;99995.16;4422248;32;33568;-83
2022/05/04 04:11:22;;;;;;;11.30;7.20;;;;;;;9.45;86.58;99999.88;4413619;32;33909;-85
2022/05/04 04:13:49;;;;;;;9.73;6.90;;;;;;;9.43;86.29;99998.91;4418897;32;34731;-83
2022/05/04 04:16:17;;;;;;;12.15;7.30;;;;;;;9.42;86.70;100003.16;4420624;32;33839;-83
2022/05/04 04:18:44;;;;;;;10.38;7.28;;;;;;;9.58;86.37;100011.72;4419287;32;33769;-84
2022/05/04 04:23:58;;;;;;;10.82;6.95;;;;;;;9.40;86.90;100019.41;4422930;32;33961;-85
2022/05/04 04:26:26;;;;;;;10.88;7.12;;;;;;;9.50;86.66;100008.75;4432766;32;34467;-85
2022/05/04 04:28:54;;;;;;;10.95;7.10;;;;;;;9.46;86.65;100009.38;4432307;32;33453;-85
2022/05/04 04:31:22;;;;;;;11.32;7.05;;;;;;;9.57;86.09;100020.31;4425082;32;33942;-85
2022/05/04 04:33:49;;;;;;;12.55;6.80;;;;;;;9.59;85.92;100023.87;4435154;32;34638;-83
2022/05/04 04:36:17;;;;;;;11.55;7.20;;;;;;;9.67;85.99;100021.66;4419955;32;33863;-83
2022/05/04 04:38:45;;;;;;;13.20;7.60;;;;;;;9.71;85.50;100013.25;4415559;32;33164;-83
2022/05/04 04:41:13;;;;;;;11.45;6.68;;;;;;;9.88;84.69;100024.47;4426838;32;33622;-85
2022/05/04 04:43:41;;;;;;;12.02;7.40;;;;;;;9.75;85.19;100022.94;4430337;32;33764;-84
2022/05/04 04:46:08;;;;;;;11.68;7.65;;;;;;;9.62;86.72;100024.03;4408696;32;34473;-83
2022/05/04 04:48:36;;;;;;;11.68;7.40;;;;;;;9.59;87.41;100032.50;4429539;32;34050;-84
2022/05/04 04:51:04;;;;;;;12.65;7.80;;;;;;;9.60;87.49;100029.12;4404863;32;32257;-85
2022/05/04 04:53:32;;;;;;;11.60;8.05;;;;;;;10.11;85.10;100030.81;4434255;32;34627;-85
2022/05/04 04:55:59;;;;;;;12.30;7.80;;;;;;;10.13;84.58;100029.19;4430995;32;34149;-86
2022/05/04 04:58:27;;;;;;;13.00;8.15;;;;;;;10.12;85.43;100027.41;4431717;32;33079;-84
2022/05/04 05:00:54;;;;;;;12.32;8.20;;;;;;;9.97;86.66;100027.53;4415105;32;34616;-86
2022/05/04 05:03:23;;;;;;;14.82;8.40;;;;;;;10.37;84.99;100030.44;4428927;32;34705;-86
2022/05/04 05:05:51;;;;;;;11.65;7.45;;;;;;;10.40;85.13;100035.75;4412754;32;32358;-86
2022/05/04 05:08:19;;;;;;;14.38;7.55;;;;;;;10.74;84.10;100037.41;4432482;32;34152;-85
2022/05/04 05:10:47;;;;;;;11.10;7.82;;;;;;;10.67;84.28;100039.63;4444755;32;34417;-85
2022/05/04 05:13:14;;;;;;;13.20;7.80;;;;;;;11.02;82.83;100033.53;4423396;32;34112;-86
2022/05/04 05:18:28;;;;;;;10.65;7.28;;;;;;;10.96;84.02;100043.59;4444638;32;33160;-85
2022/05/04 05:20:59;;;;;;;11.45;8.20;;;;;;;11.25;83.50;100046.66;4432587;32;33621;-86
2022/05/04 05:23:28;;;;;;;14.05;8.43;;;;;;;11.55;83.32;100037.69;4426015;32;33969;-86
2022/05/04 05:25:55;;;;;;;15.95;7.72;;;;;;;11.80;82.28;100038.72;4434233;32;32307;-85
2022/05/04 05:28:23;;;;;;;10.75;7.28;;;;;;;11.87;82.72;100039.91;4445447;32;33466;-86
2022/05/04 05:30:50;;;;;;;10.95;6.82;;;;;;;12.26;79.98;100035.53;4421432;32;32223;-84
2022/05/04 05:33:18;;;;;;;12.90;7.72;;;;;;;12.00;81.44;100032.75;4429769;32;33965;-84
2022/05/04 05:35:45;;;;;;;10.35;7.18;;;;;;;12.30;79.90;100031.38;4426897;32;33438;-85
2022/05/04 05:38:13;;;;;;;19.02;8.20;;;;;;;12.25;79.83;100038.97;4444956;32;34043;-85
2022/05/04 05:40:41;;;;;;;13.85;7.68;;;;;;;12.47;79.71;100039.84;4446381;32;33914;-85
2022/05/04 05:43:09;;;;;;;10.70;7.05;;;;;;;13.00;78.73;100043.72;4421656;32;33241;-85
2022/05/04 05:45:37;;;;;;;12.60;7.18;;;;;;;12.91;78.25;100045.97;4427452;32;34448;-85
2022/05/04 05:48:05;;;;;;;10.85;6.95;;;;;;;13.23;77.09;100036.81;4445355;32;33539;-85
2022/05/04 05:50:35;;;;;;;15.05;6.95;;;;;;;14.53;72.54;100031.81;4437525;32;34527;-84
2022/05/04 05:53:03;;;;;;;11.18;7.15;;;;;;;14.04;73.33;100035.38;4448204;32;34679;-86
2022/05/04 05:55:31;;;;;;;8.82;6.28;;;;;;;13.77;75.97;100036.16;4428631;32;33634;-86
2022/05/04 05:57:59;;;;;;;10.60;6.40;;;;;;;15.18;69.92;100037.31;4446330;32;33111;-86
2022/05/04 06:00:26;;;;;;;9.85;6.68;;;;;;;14.34;72.30;100038.13;4445048;32;33493;-85
2022/05/04 06:02:54;;;;;;;11.70;6.78;;;;;;;13.94;74.14;100045.47;4445153;32;33853;-85
2022/05/04 06:05:22;;;;;;;12.57;8.43;;;;;;;14.21;73.28;100049.84;4448611;32;34157;-86
2022/05/04 06:07:50;;;;;;;11.73;8.00;;;;;;;14.05;73.98;100052.78;4439021;32;34081;-85
2022/05/04 06:10:18;;;;;;;12.57;7.50;;;;;;;14.22;74.05;100048.16;4447955;32;34310;-85
2022/05/04 06:12:46;;;;;;;10.02;7.07;;;;;;;14.28;74.38;100057.06;4440454;32;33409;-84
2022/05/04 06:15:14;;;;;;;12.05;7.30;;;;;;;14.31;73.90;100059.78;4432268;32;34469;-87
2022/05/04 06:17:44;;;;;;;11.73;7.50;;;;;;;14.58;72.91;100061.53;4419779;32;33092;-85
2022/05/04 06:20:11;;;;;;;12.02;7.45;;;;;;;14.99;70.91;100054.19;4424634;32;33915;-86
2022/05/04 06:22:39;;;;;;;10.00;7.15;;;;;;;14.70;72.73;100051.53;4447708;32;33919;-86
2022/05/04 06:25:08;;;;;;;11.35;7.20;;;;;;;14.91;71.89;100050.41;4431952;32;33945;-84
2022/05/04 06:27:35;;;;;;;11.23;7.35;;;;;;;15.34;70.36;100062.19;4441301;32;34188;-83
2022/05/04 06:35:35;;;;;;;13.20;7.20;;;;;;;16.79;65.18;100055.59;4435285;32;32533;-82
2022/05/04 06:38:10;;;;;;;9.50;6.60;;;;;;;17.59;62.68;100057.37;4434980;32;33675;-83
2022/05/04 06:40:42;;;;;;;9.60;6.82;;;;;;;18.20;59.57;100058.59;4447232;32;33915;-83
2022/05/04 06:43:15;;;;;;;11.65;7.12;;;;;;;18.13;59.82;100053.22;4449414;32;33427;-83
2022/05/04 06:45:43;;;;;;;10.73;6.93;;;;;;;18.35;58.85;100058.00;4449077;32;34676;-82
2022/05/04 06:48:10;;;;;;;9.27;6.47;;;;;;;17.97;59.82;100050.31;4447563;32;34091;-84
2022/05/04 06:50:38;;;;;;;8.30;6.10;;;;;;;18.49;57.47;100052.97;4444883;32;34677;-83
2022/05/04 06:53:06;;;;;;;11.77;5.97;;;;;;;18.94;55.34;100049.34;4452818;32;32430;-83
2022/05/04 06:55:33;;;;;;;8.35;5.18;;;;;;;18.58;56.65;100050.50;4451027;32;33819;-81
2022/05/04 06:58:01;;;;;;;8.43;4.78;;;;;;;18.75;53.52;100047.25;4442288;32;33548;-82
2022/05/04 07:00:28;;;;;;;9.23;4.82;;;;;;;18.62;53.12;100046.16;4452326;32;34663;-83
2022/05/04 07:02:56;;;;;;;6.72;5.03;;;;;;;18.41;53.87;100051.97;4444184;32;33618;-82
2022/05/04 07:05:24;;;;;;;8.55;5.20;;;;;;;18.50;54.87;100046.84;4446212;32;33572;-83
2022/05/04 07:07:52;;;;;;;6.82;4.03;;;;;;;19.27;51.74;100039.28;4428787;32;34026;-83
2022/05/04 07:10:20;;;;;;;6.03;3.28;;;;;;;19.23;51.76;100043.63;4442163;32;34478;-83
2022/05/04 07:12:48;;;;;;;5.40;3.33;;;;;;;19.23;48.40;100043.63;4446639;32;33873;-84
2022/05/04 07:15:17;;;;;;;8.77;3.03;;;;;;;18.33;50.87;100043.06;4432388;32;34316;-84
2022/05/04 07:17:45;;;;;;;5.35;3.10;;;;;;;17.99;51.06;100038.13;4431294;32;33439;-84
2022/05/04 07:20:13;;;;;;;9.27;3.78;;;;;;;17.77;52.04;100041.13;4435419;32;33916;-83
2022/05/04 07:22:40;;;;;;;7.40;3.72;;;;;;;19.27;49.34;100044.53;4449116;32;33655;-83
2022/05/04 07:25:08;;;;;;;7.03;3.90;;;;;;;19.07;49.55;100046.91;4435722;32;33906;-83
2022/05/04 07:27:37;;;;;;;5.53;3.35;;;;;;;19.15;50.02;100047.88;4448206;32;33618;-82
2022/05/04 07:30:05;;;;;;;5.82;3.50;;;;;;;19.56;49.48;100050.16;4433005;32;34722;-85
2022/05/04 07:32:33;;;;;;;7.00;4.05;;;;;;;19.56;48.10;100045.78;4451558;32;33752;-85
2022/05/04 07:35:02;;;;;;;6.35;3.30;;;;;;;18.63;51.63;100061.94;4450798;32;34113;-85
2022/05/04 07:37:29;;;;;;;5.22;2.95;;;;;;;18.65;49.12;100060.22;4455988;32;34143;-81
2022/05/04 07:42:44;;;;;;;6.65;3.03;;;;;;;20.49;46.23;100052.03;4455120;32;33324;-85
2022/05/04 07:45:12;;;;;;;5.55;3.33;;;;;;;21.33;43.24;100050.00;4449067;32;33237;-84
2022/05/04 07:47:40;;;;;;;6.85;2.95;;;;;;;21.26;43.97;100048.19;4438791;32;33282;-83
2022/05/04 07:50:11;;;;;;;4.60;2.97;;;;;;;21.35;44.13;100042.09;4438367;32;34074;-84
2022/05/04 07:52:39;;;;;;;5.05;3.12;;;;;;;21.71;44.22;100044.03;4439223;32;31616;-83
2022/05/04 07:55:07;;;;;;;5.93;3.33;;;;;;;21.18;44.19;100056.06;4454487;32;33346;-84
2022/05/04 07:57:35;;;;;;;4.82;3.28;;;;;;;20.16;46.71;100064.00;4450574;32;33139;-83
2022/05/04 08:05:40;;;;;;;6.40;3.15;;;;;;;19.42;46.21;100058.75;4450610;32;34554;-83
2022/05/04 08:08:09;;;;;;;6.37;2.97;;;;;;;20.10;46.26;100064.81;4439402;32;33456;-85
2022/05/04 08:10:37;;;;;;;5.35;3.12;;;;;;;20.21;44.38;100060.56;4435844;32;33277;-83
2022/05/04 08:13:04;;;;;;;4.87;2.85;;;;;;;21.45;43.24;100058.88;4427583;32;33885;-84
2022/05/04 08:15:32;;;;;;;5.75;3.35;;;;;;;22.45;41.55;100060.03;4431367;32;34162;-83
2022/05/04 08:18:01;;;;;;;4.50;2.85;;;;;;;22.75;40.12;100051.25;4420705;32;33864;-83
2022/05/04 08:20:29;;;;;;;5.65;3.00;;;;;;;23.43;38.87;100055.50;4438894;32;34785;-82
2022/05/04 08:22:58;;;;;;;5.00;2.60;;;;;;;24.00;38.00;100053.50;4434993;32;34309;-82
2022/05/04 08:25:25;;;;;;;4.93;2.62;;;;;;;23.94;38.24;100042.97;4422538;32;32564;-85
2022/05/04 08:27:53;;;;;;;5.40;2.53;;;;;;;24.35;37.75;100049.72;4435617;32;33425;-85
2022/05/04 08:30:21;;;;;;;3.95;2.30;;;;;;;24.49;37.85;100047.88;4435964;32;31584;-81
2022/05/04 08:32:49;;;;;;;5.70;3.37;;;;;;;24.59;37.96;100050.44;4434472;32;34001;-82
2022/05/04 08:35:17;;;;;;;4.18;2.75;;;;;;;24.45;37.77;100056.69;4438574;32;33371;-83
2022/05/04 08:37:46;;;;;;;6.22;2.50;;;;;;;24.78;36.00;100049.38;4437931;32;33867;-83
2022/05/04 08:40:13;;;;;;;5.35;2.45;;;;;;;24.43;36.13;100058.47;4433802;32;33830;-84
2022/05/04 08:42:43;;;;;;;5.28;2.37;;;;;;;24.68;36.90;100059.19;4438893;32;34727;-83
2022/05/04 08:45:13;;;;;;;4.95;2.50;;;;;;;24.35;37.41;100060.31;4436309;32;35812;-82
2022/05/04 08:47:41;;;;;;;6.15;2.72;;;;;;;24.17;37.55;100053.41;4428204;32;34079;-84
2022/05/04 08:50:12;;;;;;;4.10;2.25;;;;;;;24.56;37.10;100053.13;4439108;32;34596;-85
2022/05/04 08:52:44;;;;;;;48.87;6.00;;;;;;;25.06;36.45;100059.72;4432282;32;33795;-83
2022/05/04 08:55:11;;;;;;;5.28;2.85;;;;;;;25.40;35.42;100051.41;4418896;32;33640;-85
2022/05/04 08:57:39;;;;;;;6.62;2.97;;;;;;;25.80;34.81;100050.91;4435105;32;33278;-85
2022/05/04 09:00:10;;;;;;;6.82;3.20;;;;;;;25.69;34.51;100051.03;4432056;32;33879;-83
2022/05/04 09:02:38;;;;;;;4.12;2.30;;;;;;;25.69;33.42;100049.28;4430382;32;34655;-83
2022/05/04 09:05:18;;;;;;;5.37;2.47;;;;;;;25.67;32.64;100048.44;4434697;32;34200;-82
2022/05/04 09:07:50;;;;;;;4.80;2.47;;;;;;;23.72;35.91;100053.63;4427529;32;33681;-83
2022/05/04 09:10:21;;;;;;;6.43;3.42;;;;;;;24.43;35.72;100052.31;4447264;32;33952;-83
2022/05/04 09:12:52;;;;;;;5.28;2.75;;;;;;;24.80;35.57;100058.22;4440315;32;34776;-83
2022/05/04 09:15:22;;;;;;;4.30;2.50;;;;;;;24.64;35.50;100056.59;4453503;32;34480;-83
2022/05/04 09:18:13;;;;;;;5.80;3.10;;;;;;;24.77;34.22;100057.37;4425031;32;33225;-83
2022/05/04 09:20:45;;;;;;;5.32;2.83;;;;;;;24.83;34.82;100052.88;4449013;32;34591;-83
2022/05/04 09:23:18;;;;;;;4.00;2.60;;;;;;;24.96;34.18;100048.34;4453141;32;34084;-83
2022/05/04 09:25:50;;;;;;;5.93;3.10;;;;;;;25.16;34.58;100050.78;4440802;32;33923;-83
2022/05/04 09:28:18;;;;;;;6.25;3.35;;;;;;;25.27;34.69;100048.91;4452090;32;33429;-83
2022/05/04 09:30:51;;;;;;;6.45;2.95;;;;;;;25.39;35.13;100045.25;4452261;32;33674;-83
2022/05/04 09:33:21;;;;;;;7.37;3.58;;;;;;;25.72;33.09;100044.84;4439703;32;33612;-83
2022/05/04 09:35:49;;;;;;;6.28;4.40;;;;;;;26.11;32.93;100047.88;4438488;32;34600;-84
2022/05/04 09:46:44;;;;;;;8.80;4.70;;;;;;;24.60;36.43;100046.91;4442873;32;34469;-83
2022/05/04 09:49:17;;;;;;;7.57;3.90;;;;;;;25.56;34.83;100044.19;4453944;32;33345;-83
2022/05/04 09:51:51;;;;;;;6.65;4.50;;;;;;;26.08;33.83;100038.19;4455965;32;34058;-84
2022/05/04 09:54:24;;;;;;;6.30;3.22;;;;;;;25.98;33.41;100032.12;4436190;32;33923;-83
2022/05/04 09:57:03;;;;;;;5.12;2.72;;;;;;;26.32;32.64;100026.28;4441356;32;34905;-84
2022/05/04 09:59:32;;;;;;;7.47;3.20;;;;;;;26.22;31.94;100024.69;4454339;32;34063;-84
2022/05/04 10:02:03;;;;;;;4.32;3.25;;;;;;;25.97;31.77;100024.19;4438837;32;33759;-83
2022/05/04 10:04:33;;;;;;;7.55;3.75;;;;;;;25.57;32.82;100022.91;4447900;32;33511;-84
2022/05/04 10:07:09;;;;;;;12.30;3.40;;;;;;;25.25;32.26;100021.56;4448458;32;34127;-84
2022/05/04 10:09:37;;;;;;;5.93;3.10;;;;;;;25.70;31.59;100016.53;4435634;32;33290;-84
2022/05/04 10:12:05;;;;;;;7.93;3.28;;;;;;;25.40;32.32;100016.94;4432626;32;33635;-83
2022/05/04 10:14:33;;;;;;;9.60;3.20;;;;;;;25.12;33.06;100014.59;4431745;32;34076;-83
2022/05/04 10:17:18;;;;;;;6.87;3.33;;;;;;;25.37;32.30;100011.69;4436077;32;33808;-83
2022/05/04 10:20:11;;;;;;;6.37;3.12;;;;;;;24.65;33.96;100024.81;4423837;32;33011;-84
2022/05/04 10:22:43;;;;;;;4.57;3.10;;;;;;;24.86;32.85;100009.56;4435529;32;33434;-83
2022/05/04 10:25:13;;;;;;;9.10;5.68;;;;;;;25.01;32.97;100003.25;4433040;32;31978;-83
2022/05/04 10:27:42;;;;;;;10.00;6.60;;;;;;;24.91;33.14;100003.34;4426501;32;34485;-84
2022/05/04 10:32:58;;;;;;;5.47;3.05;;;;;;;24.71;33.33;100000.03;4434840;32;33918;-83
2022/05/04 10:35:47;;;;;;;6.62;3.33;;;;;;;24.91;33.55;100003.34;4433734;32;34546;-85
2022/05/04 10:38:27;;;;;;;5.55;3.28;;;;;;;24.65;34.49;100010.69;4437528;32;33670;-83
2022/05/04 10:40:57;;;;;;;8.48;3.47;;;;;;;24.60;34.99;100010.72;4430533;32;33304;-84
2022/05/04 10:43:47;;;;;;;9.35;3.70;;;;;;;23.89;39.65;100008.59;4427685;32;33378;-82
2022/05/04 10:46:17;;;;;;;9.93;4.37;;;;;;;21.50;47.31;100017.59;4433694;32;33551;-83
2022/05/04 10:48:52;;;;;;;10.02;4.87;;;;;;;20.14;53.08;100024.53;4436413;32;34273;-83
2022/05/04 10:51:21;;;;;;;12.85;5.43;;;;;;;19.19;60.09;100023.44;4432342;32;34372;-82
2022/05/04 10:53:57;;;;;;;8.63;4.78;;;;;;;18.67;63.56;100027.03;4437558;32;34579;-83
2022/05/04 10:56:26;;;;;;;7.85;4.78;;;;;;;18.40;63.55;100021.34;4432490;32;34591;-83
2022/05/04 10:58:56;;;;;;;10.98;5.00;;;;;;;18.40;60.90;100023.97;4438812;32;34421;-85
2022/05/04 11:01:29;;;;;;;18.48;5.60;;;;;;;18.23;64.58;100021.06;4436682;32;35420;-82
2022/05/04 11:04:10;;;;;;;10.13;5.18;;;;;;;18.91;64.79;100019.53;4427735;32;34538;-83
2022/05/04 11:06:45;;;;;;;10.20;4.55;;;;;;;19.77;63.14;100016.28;4434920;32;33742;-85
2022/05/04 11:09:14;;;;;;;;;;;;;;;19.44;60.74;100009.75;4430738;32;34228;-84
2022/05/04 11:11:43;;;;;;;11.48;6.50;;;;;;;18.87;68.55;100026.47;4412622;32;31759;-82
2022/05/04 11:14:13;;;;;;;12.18;4.90;;;;;;;19.89;63.59;100017.28;4424235;32;34687;-82
2022/05/04 11:16:42;;;;;;;8.70;4.70;;;;;;;20.46;58.25;100017.81;4423644;32;34600;-85
2022/05/04 11:19:14;;;;;;;9.20;4.80;;;;;;;19.46;59.62;100012.38;4423848;32;33837;-85
2022/05/04 11:21:42;;;;;;;9.68;5.50;;;;;;;20.43;58.32;100016.03;4421564;32;33016;-84
2022/05/04 11:24:12;;;;;;;8.82;4.50;;;;;;;20.80;58.54;100011.97;4410167;32;34313;-83
2022/05/04 11:26:52;;;;;;;6.30;3.95;;;;;;;21.19;54.80;100015.69;4423534;32;33818;-82
2022/05/04 11:29:23;;;;;;;17.73;4.15;;;;;;;21.43;52.69;100013.16;4435851;32;33580;-83
2022/05/04 11:32:02;;;;;;;8.88;4.07;;;;;;;21.17;51.36;100011.25;4424338;32;33255;-85
2022/05/04 11:34:35;;;;;;;6.25;4.43;;;;;;;21.44;50.92;100004.38;4422913;32;33428;-83
2022/05/04 11:37:07;;;;;;;7.30;4.20;;;;;;;21.91;49.64;100003.66;4432741;32;33879;-84
2022/05/04 11:39:37;;;;;;;8.32;3.80;;;;;;;21.96;49.91;100002.78;4410023;32;32516;-85
2022/05/04 11:42:08;;;;;;;6.47;3.50;;;;;;;21.91;46.70;100001.91;4437392;32;33553;-83
2022/05/04 11:44:39;;;;;;;7.78;4.50;;;;;;;22.02;46.99;99999.28;4423881;32;33525;-85
2022/05/04 11:47:08;;;;;;;7.28;3.97;;;;;;;21.91;46.52;99996.62;4437217;32;33126;-84
2022/05/04 11:49:36;;;;;;;6.62;3.90;;;;;;;22.07;46.42;100002.78;4413363;32;33803;-84
2022/05/04 11:52:04;;;;;;;6.45;3.55;;;;;;;22.11;46.70;99999.28;4435193;32;33206;-84
2022/05/04 11:54:32;;;;;;;6.30;3.50;;;;;;;22.09;46.45;99998.41;4422874;32;33537;-83
2022/05/04 11:57:11;;;;;;;7.07;3.00;;;;;;;21.82;46.83;99995.72;4422239;32;34327;-84
2022/05/04 11:59:38;;;;;;;5.87;3.20;;;;;;;22.14;44.34;99999.28;4413963;32;33492;-83
2022/05/04 12:02:07;;;;;;;7.10;4.00;;;;;;;21.90;47.93;100000.13;4423472;32;33323;-85
2022/05/04 12:04:36;;;;;;;7.82;4.00;;;;;;;21.00;52.06;100009.44;4423235;32;34706;-82
2022/05/04 12:07:04;;;;;;;7.95;4.05;;;;;;;20.79;57.44;100017.22;4424791;32;34810;-82
2022/05/04 12:09:31;;;;;;;10.73;5.30;;;;;;;20.36;58.27;100012.47;4423166;32;34122;-84
2022/05/04 12:12:00;;;;;;;7.82;4.62;;;;;;;19.57;58.61;100012.53;4450459;32;33256;-85
2022/05/04 12:14:28;;;;;;;5.68;4.05;;;;;;;19.40;58.07;100017.56;4438175;32;33956;-84